sensor_id;sensor_type;location;lat;lon;timestamp;temperature;humidity
23783;DHT22;12071;50.850;4.446;2023-08-01T00:02:20;17.20;1.00
23783;DHT22;12071;50.850;4.446;2023-08-01T00:04:46;17.10;1.00
23783;DHT22;12071;50.850;4.446;2023-08-01T00:07:11;17.10;1.00
23783;DHT22;12071;50.850;4.446;2023-08-01T00:09:37;17.00;1.00
23783;DHT22;12071;50.850;4.446;2023-08-01T00:12:03;17.10;1.00
23783;DHT22;12071;50.850;4.446;2023-08-01T00:14:28;17.00;1.00
23783;DHT22;12071;50.850;4.446;2023-08-01T00:16:54;16.90;1.00
23783;DHT22;12071;50.850;4.446;2023-08-01T00:19:19;17.00;1.00
23783;DHT22;12071;50.850;4.446;2023-08-01T00:21:45;16.90;1.00
23783;DHT22;12071;50.850;4.446;2023-08-01T00:24:12;16.90;1.00
23783;DHT22;12071;50.850;4.446;2023-08-01T00:26:37;17.10;1.00
23783;DHT22;12071;50.850;4.446;2023-08-01T00:29:03;17.00;1.00
23783;DHT22;12071;50.850;4.446;2023-08-01T00:31:29;17.10;1.00
23783;DHT22;12071;50.850;4.446;2023-08-01T00:33:54;17.00;1.00
23783;DHT22;12071;50.850;4.446;2023-08-01T00:36:20;17.10;1.00
23783;DHT22;12071;50.850;4.446;2023-08-01T00:38:45;17.00;1.00
23783;DHT22;12071;50.850;4.446;2023-08-01T00:41:11;17.00;1.00
23783;DHT22;12071;50.850;4.446;2023-08-01T00:43:36;17.00;1.00
23783;DHT22;12071;50.850;4.446;2023-08-01T00:46:04;16.90;1.00
23783;DHT22;12071;50.850;4.446;2023-08-01T00:48:31;16.90;1.00
23783;DHT22;12071;50.850;4.446;2023-08-01T00:50:58;16.90;1.00
23783;DHT22;12071;50.850;4.446;2023-08-01T00:53:24;16.90;1.00
23783;DHT22;12071;50.850;4.446;2023-08-01T00:55:52;16.90;1.00
23783;DHT22;12071;50.850;4.446;2023-08-01T00:58:20;17.00;1.00
23783;DHT22;12071;50.850;4.446;2023-08-01T01:00:46;17.00;1.00
23783;DHT22;12071;50.850;4.446;2023-08-01T01:03:14;16.80;1.00
23783;DHT22;12071;50.850;4.446;2023-08-01T01:05:58;16.90;1.00
23783;DHT22;12071;50.850;4.446;2023-08-01T01:08:26;17.00;1.00
23783;DHT22;12071;50.850;4.446;2023-08-01T01:10:52;16.90;1.00
23783;DHT22;12071;50.850;4.446;2023-08-01T01:13:17;16.80;1.00
23783;DHT22;12071;50.850;4.446;2023-08-01T01:15:43;16.90;1.00
23783;DHT22;12071;50.850;4.446;2023-08-01T01:18:08;16.80;1.00
23783;DHT22;12071;50.850;4.446;2023-08-01T01:20:35;16.90;1.00
23783;DHT22;12071;50.850;4.446;2023-08-01T01:23:01;16.90;1.00
23783;DHT22;12071;50.850;4.446;2023-08-01T01:25:30;17.00;1.00
23783;DHT22;12071;50.850;4.446;2023-08-01T01:27:57;16.90;1.00
23783;DHT22;12071;50.850;4.446;2023-08-01T01:30:23;16.80;1.00
23783;DHT22;12071;50.850;4.446;2023-08-01T01:32:50;16.80;1.00
23783;DHT22;12071;50.850;4.446;2023-08-01T01:35:16;16.80;1.00
23783;DHT22;12071;50.850;4.446;2023-08-01T01:37:42;16.80;1.00
23783;DHT22;12071;50.850;4.446;2023-08-01T01:40:07;16.80;1.00
23783;DHT22;12071;50.850;4.446;2023-08-01T01:42:34;16.70;1.00
23783;DHT22;12071;50.850;4.446;2023-08-01T01:44:59;16.60;1.00
23783;DHT22;12071;50.850;4.446;2023-08-01T01:47:25;16.70;1.00
23783;DHT22;12071;50.850;4.446;2023-08-01T01:49:51;16.80;1.00
23783;DHT22;12071;50.850;4.446;2023-08-01T01:52:16;16.80;1.00
23783;DHT22;12071;50.850;4.446;2023-08-01T01:54:42;16.70;1.00
23783;DHT22;12071;50.850;4.446;2023-08-01T01:57:07;16.80;1.00
23783;DHT22;12071;50.850;4.446;2023-08-01T01:59:33;16.70;1.00
23783;DHT22;12071;50.850;4.446;2023-08-01T02:01:59;16.70;1.00
23783;DHT22;12071;50.850;4.446;2023-08-01T02:04:25;16.80;1.00
23783;DHT22;12071;50.850;4.446;2023-08-01T02:06:50;16.80;1.00
23783;DHT22;12071;50.850;4.446;2023-08-01T02:09:18;16.60;1.00
23783;DHT22;12071;50.850;4.446;2023-08-01T02:11:44;16.50;1.00
23783;DHT22;12071;50.850;4.446;2023-08-01T02:14:10;16.50;1.00
23783;DHT22;12071;50.850;4.446;2023-08-01T02:16:35;16.50;1.00
23783;DHT22;12071;50.850;4.446;2023-08-01T02:19:01;16.50;1.00
23783;DHT22;12071;50.850;4.446;2023-08-01T02:21:26;16.50;1.00
23783;DHT22;12071;50.850;4.446;2023-08-01T02:23:52;16.40;1.00
23783;DHT22;12071;50.850;4.446;2023-08-01T02:26:17;16.50;1.00
23783;DHT22;12071;50.850;4.446;2023-08-01T02:28:43;16.40;1.00
23783;DHT22;12071;50.850;4.446;2023-08-01T02:31:09;16.50;1.00
23783;DHT22;12071;50.850;4.446;2023-08-01T02:33:34;16.40;1.00
23783;DHT22;12071;50.850;4.446;2023-08-01T02:36:00;16.60;1.00
23783;DHT22;12071;50.850;4.446;2023-08-01T02:38:26;16.40;1.00
23783;DHT22;12071;50.850;4.446;2023-08-01T02:40:51;16.30;1.00
23783;DHT22;12071;50.850;4.446;2023-08-01T02:43:17;16.30;1.00
23783;DHT22;12071;50.850;4.446;2023-08-01T02:45:42;16.40;1.00
23783;DHT22;12071;50.850;4.446;2023-08-01T02:48:08;16.50;1.00
23783;DHT22;12071;50.850;4.446;2023-08-01T02:50:33;16.40;1.00
23783;DHT22;12071;50.850;4.446;2023-08-01T02:52:59;16.50;1.00
23783;DHT22;12071;50.850;4.446;2023-08-01T02:55:25;16.80;1.00
23783;DHT22;12071;50.850;4.446;2023-08-01T02:57:50;16.80;1.00
23783;DHT22;12071;50.850;4.446;2023-08-01T03:00:16;16.70;1.00
23783;DHT22;12071;50.850;4.446;2023-08-01T03:02:43;16.60;1.00
23783;DHT22;12071;50.850;4.446;2023-08-01T03:05:09;16.60;1.00
23783;DHT22;12071;50.850;4.446;2023-08-01T03:07:35;16.40;1.00
23783;DHT22;12071;50.850;4.446;2023-08-01T03:10:00;16.40;1.00
23783;DHT22;12071;50.850;4.446;2023-08-01T03:12:26;16.40;1.00
23783;DHT22;12071;50.850;4.446;2023-08-01T03:14:52;16.40;1.00
23783;DHT22;12071;50.850;4.446;2023-08-01T03:17:18;16.40;1.00
23783;DHT22;12071;50.850;4.446;2023-08-01T03:19:43;16.30;1.00
23783;DHT22;12071;50.850;4.446;2023-08-01T03:22:12;16.40;1.00
23783;DHT22;12071;50.850;4.446;2023-08-01T03:24:38;16.40;1.00
23783;DHT22;12071;50.850;4.446;2023-08-01T03:27:03;16.40;1.00
23783;DHT22;12071;50.850;4.446;2023-08-01T03:29:29;16.60;1.00
23783;DHT22;12071;50.850;4.446;2023-08-01T03:31:55;16.60;1.00
23783;DHT22;12071;50.850;4.446;2023-08-01T03:34:20;16.60;1.00
23783;DHT22;12071;50.850;4.446;2023-08-01T03:36:46;16.80;1.00
23783;DHT22;12071;50.850;4.446;2023-08-01T03:39:11;16.70;1.00
23783;DHT22;12071;50.850;4.446;2023-08-01T03:41:38;16.70;1.00
23783;DHT22;12071;50.850;4.446;2023-08-01T03:44:04;16.70;1.00
23783;DHT22;12071;50.850;4.446;2023-08-01T03:46:29;16.70;1.00
23783;DHT22;12071;50.850;4.446;2023-08-01T03:48:55;16.70;1.00
23783;DHT22;12071;50.850;4.446;2023-08-01T03:51:21;16.60;1.00
23783;DHT22;12071;50.850;4.446;2023-08-01T03:53:47;16.70;1.00
23783;DHT22;12071;50.850;4.446;2023-08-01T03:56:13;16.80;1.00
23783;DHT22;12071;50.850;4.446;2023-08-01T03:58:39;16.70;1.00
23783;DHT22;12071;50.850;4.446;2023-08-01T04:01:04;16.60;1.00
23783;DHT22;12071;50.850;4.446;2023-08-01T04:03:32;16.50;1.00
23783;DHT22;12071;50.850;4.446;2023-08-01T04:05:57;16.30;1.00
23783;DHT22;12071;50.850;4.446;2023-08-01T04:08:23;16.30;1.00
23783;DHT22;12071;50.850;4.446;2023-08-01T04:10:49;16.30;1.00
23783;DHT22;12071;50.850;4.446;2023-08-01T04:13:15;16.40;1.00
23783;DHT22;12071;50.850;4.446;2023-08-01T04:15:41;16.20;1.00
23783;DHT22;12071;50.850;4.446;2023-08-01T04:18:07;16.30;1.00
23783;DHT22;12071;50.850;4.446;2023-08-01T04:20:32;16.30;1.00
23783;DHT22;12071;50.850;4.446;2023-08-01T04:22:58;16.40;1.00
23783;DHT22;12071;50.850;4.446;2023-08-01T04:25:24;16.20;1.00
23783;DHT22;12071;50.850;4.446;2023-08-01T04:27:50;16.40;1.00
23783;DHT22;12071;50.850;4.446;2023-08-01T04:30:16;16.40;1.00
23783;DHT22;12071;50.850;4.446;2023-08-01T04:32:41;16.30;1.00
23783;DHT22;12071;50.850;4.446;2023-08-01T04:35:07;16.40;1.00
23783;DHT22;12071;50.850;4.446;2023-08-01T04:37:33;16.40;1.00
23783;DHT22;12071;50.850;4.446;2023-08-01T04:39:58;16.30;1.00
23783;DHT22;12071;50.850;4.446;2023-08-01T04:42:24;16.20;1.00
23783;DHT22;12071;50.850;4.446;2023-08-01T04:44:50;16.10;1.00
23783;DHT22;12071;50.850;4.446;2023-08-01T04:47:15;16.20;1.00
23783;DHT22;12071;50.850;4.446;2023-08-01T04:49:41;16.30;1.00
23783;DHT22;12071;50.850;4.446;2023-08-01T04:52:07;16.30;1.00
23783;DHT22;12071;50.850;4.446;2023-08-01T04:54:32;16.30;1.00
23783;DHT22;12071;50.850;4.446;2023-08-01T04:56:58;16.30;1.00
23783;DHT22;12071;50.850;4.446;2023-08-01T04:59:23;16.30;1.00
23783;DHT22;12071;50.850;4.446;2023-08-01T05:01:49;16.40;1.00
23783;DHT22;12071;50.850;4.446;2023-08-01T05:04:14;16.20;1.00
23783;DHT22;12071;50.850;4.446;2023-08-01T05:06:40;16.40;1.00
23783;DHT22;12071;50.850;4.446;2023-08-01T05:09:06;16.20;1.00
23783;DHT22;12071;50.850;4.446;2023-08-01T05:11:33;16.20;1.00
23783;DHT22;12071;50.850;4.446;2023-08-01T05:13:58;16.20;1.00
23783;DHT22;12071;50.850;4.446;2023-08-01T05:16:24;16.20;1.00
23783;DHT22;12071;50.850;4.446;2023-08-01T05:18:50;16.20;1.00
23783;DHT22;12071;50.850;4.446;2023-08-01T05:21:15;16.40;1.00
23783;DHT22;12071;50.850;4.446;2023-08-01T05:23:41;16.40;1.00
23783;DHT22;12071;50.850;4.446;2023-08-01T05:26:07;16.40;1.00
23783;DHT22;12071;50.850;4.446;2023-08-01T05:28:33;16.30;1.00
23783;DHT22;12071;50.850;4.446;2023-08-01T05:30:59;16.50;1.00
23783;DHT22;12071;50.850;4.446;2023-08-01T05:33:24;16.40;1.00
23783;DHT22;12071;50.850;4.446;2023-08-01T05:35:50;16.50;1.00
23783;DHT22;12071;50.850;4.446;2023-08-01T05:38:16;16.40;1.00
23783;DHT22;12071;50.850;4.446;2023-08-01T05:40:41;16.50;1.00
23783;DHT22;12071;50.850;4.446;2023-08-01T05:43:07;16.50;1.00
23783;DHT22;12071;50.850;4.446;2023-08-01T05:45:34;16.50;1.00
23783;DHT22;12071;50.850;4.446;2023-08-01T05:48:01;16.60;1.00
23783;DHT22;12071;50.850;4.446;2023-08-01T05:50:26;16.60;1.00
23783;DHT22;12071;50.850;4.446;2023-08-01T05:52:52;16.80;1.00
23783;DHT22;12071;50.850;4.446;2023-08-01T05:55:18;16.60;1.00
23783;DHT22;12071;50.850;4.446;2023-08-01T05:57:43;16.70;1.00
23783;DHT22;12071;50.850;4.446;2023-08-01T06:00:10;16.70;1.00
23783;DHT22;12071;50.850;4.446;2023-08-01T06:02:36;16.60;1.00
23783;DHT22;12071;50.850;4.446;2023-08-01T06:05:01;16.70;1.00
23783;DHT22;12071;50.850;4.446;2023-08-01T06:07:27;16.90;1.00
23783;DHT22;12071;50.850;4.446;2023-08-01T06:09:52;16.90;1.00
23783;DHT22;12071;50.850;4.446;2023-08-01T06:12:19;16.80;1.00
23783;DHT22;12071;50.850;4.446;2023-08-01T06:14:45;17.00;1.00
23783;DHT22;12071;50.850;4.446;2023-08-01T06:17:11;16.90;1.00
23783;DHT22;12071;50.850;4.446;2023-08-01T06:19:37;17.00;1.00
23783;DHT22;12071;50.850;4.446;2023-08-01T06:22:02;17.10;1.00
23783;DHT22;12071;50.850;4.446;2023-08-01T06:24:28;17.00;1.00
23783;DHT22;12071;50.850;4.446;2023-08-01T06:26:54;16.70;1.00
23783;DHT22;12071;50.850;4.446;2023-08-01T06:29:19;16.80;1.00
23783;DHT22;12071;50.850;4.446;2023-08-01T06:31:45;16.80;1.00
23783;DHT22;12071;50.850;4.446;2023-08-01T06:34:10;17.00;1.00
23783;DHT22;12071;50.850;4.446;2023-08-01T06:36:36;17.20;1.00
23783;DHT22;12071;50.850;4.446;2023-08-01T06:39:02;17.40;1.00
23783;DHT22;12071;50.850;4.446;2023-08-01T06:41:28;17.30;1.00
23783;DHT22;12071;50.850;4.446;2023-08-01T06:43:54;17.20;1.00
23783;DHT22;12071;50.850;4.446;2023-08-01T06:46:19;17.20;1.00
23783;DHT22;12071;50.850;4.446;2023-08-01T06:48:45;17.20;1.00
23783;DHT22;12071;50.850;4.446;2023-08-01T06:51:10;17.20;1.00
23783;DHT22;12071;50.850;4.446;2023-08-01T06:53:36;17.20;1.00
23783;DHT22;12071;50.850;4.446;2023-08-01T06:56:02;17.20;1.00
23783;DHT22;12071;50.850;4.446;2023-08-01T06:58:27;17.30;1.00
23783;DHT22;12071;50.850;4.446;2023-08-01T07:00:53;17.60;1.00
23783;DHT22;12071;50.850;4.446;2023-08-01T07:03:18;17.40;1.00
23783;DHT22;12071;50.850;4.446;2023-08-01T07:05:44;17.50;1.00
23783;DHT22;12071;50.850;4.446;2023-08-01T07:08:10;17.40;1.00
23783;DHT22;12071;50.850;4.446;2023-08-01T07:10:35;17.30;1.00
23783;DHT22;12071;50.850;4.446;2023-08-01T07:13:02;17.40;1.00
23783;DHT22;12071;50.850;4.446;2023-08-01T07:15:30;17.40;1.00
23783;DHT22;12071;50.850;4.446;2023-08-01T07:17:55;17.50;1.00
23783;DHT22;12071;50.850;4.446;2023-08-01T07:20:21;17.60;1.00
23783;DHT22;12071;50.850;4.446;2023-08-01T07:22:47;17.60;1.00
23783;DHT22;12071;50.850;4.446;2023-08-01T07:25:13;17.70;1.00
23783;DHT22;12071;50.850;4.446;2023-08-01T07:27:38;17.80;1.00
23783;DHT22;12071;50.850;4.446;2023-08-01T07:30:05;17.70;1.00
23783;DHT22;12071;50.850;4.446;2023-08-01T07:32:31;17.50;1.00
23783;DHT22;12071;50.850;4.446;2023-08-01T07:34:57;17.50;1.00
23783;DHT22;12071;50.850;4.446;2023-08-01T07:37:23;17.50;1.00
23783;DHT22;12071;50.850;4.446;2023-08-01T07:39:50;17.50;1.00
23783;DHT22;12071;50.850;4.446;2023-08-01T07:42:15;17.70;1.00
23783;DHT22;12071;50.850;4.446;2023-08-01T07:44:41;17.70;1.00
23783;DHT22;12071;50.850;4.446;2023-08-01T07:47:07;17.70;1.00
23783;DHT22;12071;50.850;4.446;2023-08-01T07:49:33;17.80;1.00
23783;DHT22;12071;50.850;4.446;2023-08-01T07:51:59;17.90;1.00
23783;DHT22;12071;50.850;4.446;2023-08-01T07:54:25;17.90;1.00
23783;DHT22;12071;50.850;4.446;2023-08-01T07:56:50;17.90;1.00
23783;DHT22;12071;50.850;4.446;2023-08-01T07:59:16;17.80;1.00
23783;DHT22;12071;50.850;4.446;2023-08-01T08:01:42;17.90;1.00
23783;DHT22;12071;50.850;4.446;2023-08-01T08:04:07;17.90;1.00
23783;DHT22;12071;50.850;4.446;2023-08-01T08:06:33;17.90;1.00
23783;DHT22;12071;50.850;4.446;2023-08-01T08:08:58;18.10;1.00
23783;DHT22;12071;50.850;4.446;2023-08-01T08:11:24;18.00;1.00
23783;DHT22;12071;50.850;4.446;2023-08-01T08:13:50;18.00;1.00
23783;DHT22;12071;50.850;4.446;2023-08-01T08:16:15;18.00;1.00
23783;DHT22;12071;50.850;4.446;2023-08-01T08:18:42;18.30;1.00
23783;DHT22;12071;50.850;4.446;2023-08-01T08:21:07;18.50;1.00
23783;DHT22;12071;50.850;4.446;2023-08-01T08:23:33;18.50;1.00
23783;DHT22;12071;50.850;4.446;2023-08-01T08:25:58;18.70;1.00
23783;DHT22;12071;50.850;4.446;2023-08-01T08:28:29;18.60;99.90
23783;DHT22;12071;50.850;4.446;2023-08-01T08:30:55;18.50;99.90
23783;DHT22;12071;50.850;4.446;2023-08-01T08:33:21;18.40;99.90
23783;DHT22;12071;50.850;4.446;2023-08-01T08:35:47;18.60;99.90
23783;DHT22;12071;50.850;4.446;2023-08-01T08:38:12;18.70;99.90
23783;DHT22;12071;50.850;4.446;2023-08-01T08:40:41;18.80;99.90
23783;DHT22;12071;50.850;4.446;2023-08-01T08:43:11;18.80;99.90
23783;DHT22;12071;50.850;4.446;2023-08-01T08:45:41;18.90;99.90
23783;DHT22;12071;50.850;4.446;2023-08-01T08:48:13;19.10;99.90
23783;DHT22;12071;50.850;4.446;2023-08-01T08:50:43;19.10;99.90
23783;DHT22;12071;50.850;4.446;2023-08-01T08:53:10;19.10;99.90
23783;DHT22;12071;50.850;4.446;2023-08-01T08:55:39;19.30;99.90
23783;DHT22;12071;50.850;4.446;2023-08-01T08:58:05;19.60;99.90
23783;DHT22;12071;50.850;4.446;2023-08-01T09:00:31;19.80;99.90
23783;DHT22;12071;50.850;4.446;2023-08-01T09:02:57;19.90;99.90
23783;DHT22;12071;50.850;4.446;2023-08-01T09:05:27;19.70;99.90
23783;DHT22;12071;50.850;4.446;2023-08-01T09:07:56;19.60;99.90
23783;DHT22;12071;50.850;4.446;2023-08-01T09:10:22;19.50;99.90
23783;DHT22;12071;50.850;4.446;2023-08-01T09:12:48;19.50;99.90
23783;DHT22;12071;50.850;4.446;2023-08-01T09:15:14;19.60;99.90
23783;DHT22;12071;50.850;4.446;2023-08-01T09:17:54;19.60;99.90
23783;DHT22;12071;50.850;4.446;2023-08-01T09:20:21;19.80;99.90
23783;DHT22;12071;50.850;4.446;2023-08-01T09:22:47;19.60;99.90
23783;DHT22;12071;50.850;4.446;2023-08-01T09:25:13;19.40;99.90
23783;DHT22;12071;50.850;4.446;2023-08-01T09:27:38;19.10;99.90
23783;DHT22;12071;50.850;4.446;2023-08-01T09:30:09;19.20;99.90
23783;DHT22;12071;50.850;4.446;2023-08-01T09:32:35;19.60;99.90
23783;DHT22;12071;50.850;4.446;2023-08-01T09:35:00;19.80;99.90
23783;DHT22;12071;50.850;4.446;2023-08-01T09:37:26;20.10;99.90
23783;DHT22;12071;50.850;4.446;2023-08-01T09:39:55;20.20;99.90
23783;DHT22;12071;50.850;4.446;2023-08-01T09:42:21;20.10;99.90
23783;DHT22;12071;50.850;4.446;2023-08-01T09:44:46;19.60;99.90
23783;DHT22;12071;50.850;4.446;2023-08-01T09:47:12;19.50;99.90
23783;DHT22;12071;50.850;4.446;2023-08-01T09:49:48;19.80;99.90
23783;DHT22;12071;50.850;4.446;2023-08-01T09:52:14;20.00;70.20
23783;DHT22;12071;50.850;4.446;2023-08-01T09:54:40;20.00;1.00
23783;DHT22;12071;50.850;4.446;2023-08-01T09:57:06;19.60;1.00
23783;DHT22;12071;50.850;4.446;2023-08-01T09:59:33;19.60;6.40
23783;DHT22;12071;50.850;4.446;2023-08-01T10:02:00;19.80;48.40
23783;DHT22;12071;50.850;4.446;2023-08-01T10:04:30;19.80;1.00
23783;DHT22;12071;50.850;4.446;2023-08-01T10:07:08;19.80;1.00
23783;DHT22;12071;50.850;4.446;2023-08-01T10:09:34;19.80;1.00
23783;DHT22;12071;50.850;4.446;2023-08-01T10:12:02;19.90;1.00
23783;DHT22;12071;50.850;4.446;2023-08-01T10:14:28;19.90;1.00
23783;DHT22;12071;50.850;4.446;2023-08-01T10:16:54;20.20;1.00
23783;DHT22;12071;50.850;4.446;2023-08-01T10:19:21;20.20;99.90
23783;DHT22;12071;50.850;4.446;2023-08-01T10:21:48;19.90;1.00
23783;DHT22;12071;50.850;4.446;2023-08-01T10:24:14;20.00;1.00
23783;DHT22;12071;50.850;4.446;2023-08-01T10:26:41;20.50;1.00
23783;DHT22;12071;50.850;4.446;2023-08-01T10:29:09;20.70;99.90
23783;DHT22;12071;50.850;4.446;2023-08-01T10:31:35;20.90;99.90
23783;DHT22;12071;50.850;4.446;2023-08-01T10:34:12;20.90;1.00
23783;DHT22;12071;50.850;4.446;2023-08-01T10:36:38;20.90;99.90
23783;DHT22;12071;50.850;4.446;2023-08-01T10:39:03;20.80;99.90
23783;DHT22;12071;50.850;4.446;2023-08-01T10:41:34;20.70;72.90
23783;DHT22;12071;50.850;4.446;2023-08-01T10:44:14;20.90;99.90
23783;DHT22;12071;50.850;4.446;2023-08-01T10:49:19;21.00;99.90
23783;DHT22;12071;50.850;4.446;2023-08-01T10:51:47;21.00;1.00
23783;DHT22;12071;50.850;4.446;2023-08-01T10:54:20;21.10;99.90
23783;DHT22;12071;50.850;4.446;2023-08-01T10:56:46;21.40;99.90
23783;DHT22;12071;50.850;4.446;2023-08-01T10:59:14;21.60;99.90
23783;DHT22;12071;50.850;4.446;2023-08-01T11:01:53;21.40;99.90
23783;DHT22;12071;50.850;4.446;2023-08-01T11:04:21;21.40;99.90
23783;DHT22;12071;50.850;4.446;2023-08-01T11:06:54;21.70;99.90
23783;DHT22;12071;50.850;4.446;2023-08-01T11:09:25;21.80;99.90
23783;DHT22;12071;50.850;4.446;2023-08-01T11:11:59;21.40;1.00
23783;DHT22;12071;50.850;4.446;2023-08-01T11:14:27;21.30;1.00
23783;DHT22;12071;50.850;4.446;2023-08-01T11:16:57;21.60;99.90
23783;DHT22;12071;50.850;4.446;2023-08-01T11:19:24;21.50;99.90
23783;DHT22;12071;50.850;4.446;2023-08-01T11:21:50;21.80;99.90
23783;DHT22;12071;50.850;4.446;2023-08-01T11:24:17;21.90;10.70
23783;DHT22;12071;50.850;4.446;2023-08-01T11:26:44;22.10;1.00
23783;DHT22;12071;50.850;4.446;2023-08-01T11:29:13;22.00;99.90
23783;DHT22;12071;50.850;4.446;2023-08-01T11:31:40;21.80;99.90
23783;DHT22;12071;50.850;4.446;2023-08-01T11:34:08;21.50;1.00
23783;DHT22;12071;50.850;4.446;2023-08-01T11:36:36;21.80;1.00
23783;DHT22;12071;50.850;4.446;2023-08-01T11:39:02;21.40;99.90
23783;DHT22;12071;50.850;4.446;2023-08-01T11:41:28;21.40;15.20
23783;DHT22;12071;50.850;4.446;2023-08-01T11:43:54;21.70;99.90
23783;DHT22;12071;50.850;4.446;2023-08-01T11:46:29;21.80;99.90
23783;DHT22;12071;50.850;4.446;2023-08-01T11:48:55;21.70;28.50
23783;DHT22;12071;50.850;4.446;2023-08-01T11:51:21;21.80;8.20
23783;DHT22;12071;50.850;4.446;2023-08-01T11:53:46;21.80;1.00
23783;DHT22;12071;50.850;4.446;2023-08-01T11:56:20;21.80;4.10
23783;DHT22;12071;50.850;4.446;2023-08-01T11:58:47;21.90;1.00
23783;DHT22;12071;50.850;4.446;2023-08-01T12:01:13;22.10;1.00
23783;DHT22;12071;50.850;4.446;2023-08-01T12:03:47;22.30;1.00
23783;DHT22;12071;50.850;4.446;2023-08-01T12:06:14;22.40;99.90
23783;DHT22;12071;50.850;4.446;2023-08-01T12:08:45;21.80;99.90
23783;DHT22;12071;50.850;4.446;2023-08-01T12:11:25;21.60;99.90
23783;DHT22;12071;50.850;4.446;2023-08-01T12:16:29;21.70;1.00
23783;DHT22;12071;50.850;4.446;2023-08-01T12:18:56;21.80;1.00
23783;DHT22;12071;50.850;4.446;2023-08-01T12:21:22;21.80;39.50
23783;DHT22;12071;50.850;4.446;2023-08-01T12:23:47;21.80;99.90
23783;DHT22;12071;50.850;4.446;2023-08-01T12:26:13;21.30;42.90
23783;DHT22;12071;50.850;4.446;2023-08-01T12:28:38;21.10;99.90
23783;DHT22;12071;50.850;4.446;2023-08-01T12:31:04;21.10;99.90
23783;DHT22;12071;50.850;4.446;2023-08-01T12:33:30;21.60;26.30
23783;DHT22;12071;50.850;4.446;2023-08-01T12:35:56;22.00;99.90
23783;DHT22;12071;50.850;4.446;2023-08-01T12:38:22;21.80;99.90
23783;DHT22;12071;50.850;4.446;2023-08-01T12:40:48;21.60;35.60
23783;DHT22;12071;50.850;4.446;2023-08-01T12:43:14;21.50;99.90
23783;DHT22;12071;50.850;4.446;2023-08-01T12:45:41;21.60;99.90
23783;DHT22;12071;50.850;4.446;2023-08-01T12:48:07;21.30;99.90
23783;DHT22;12071;50.850;4.446;2023-08-01T12:50:33;20.70;99.90
23783;DHT22;12071;50.850;4.446;2023-08-01T12:52:58;20.50;1.00
23783;DHT22;12071;50.850;4.446;2023-08-01T12:55:24;20.50;1.00
23783;DHT22;12071;50.850;4.446;2023-08-01T12:57:50;20.60;17.00
23783;DHT22;12071;50.850;4.446;2023-08-01T13:00:16;20.70;28.80
23783;DHT22;12071;50.850;4.446;2023-08-01T13:02:41;20.60;99.90
23783;DHT22;12071;50.850;4.446;2023-08-01T13:05:07;20.50;1.00
23783;DHT22;12071;50.850;4.446;2023-08-01T13:07:33;20.30;99.90
23783;DHT22;12071;50.850;4.446;2023-08-01T13:10:00;20.40;99.90
23783;DHT22;12071;50.850;4.446;2023-08-01T13:12:26;20.50;99.90
23783;DHT22;12071;50.850;4.446;2023-08-01T13:14:52;20.70;1.00
23783;DHT22;12071;50.850;4.446;2023-08-01T13:17:17;20.80;99.90
23783;DHT22;12071;50.850;4.446;2023-08-01T13:19:44;20.70;1.00
23783;DHT22;12071;50.850;4.446;2023-08-01T13:22:09;21.10;1.00
23783;DHT22;12071;50.850;4.446;2023-08-01T13:24:35;21.60;99.90
23783;DHT22;12071;50.850;4.446;2023-08-01T13:27:00;22.00;99.90
23783;DHT22;12071;50.850;4.446;2023-08-01T13:29:26;23.00;1.00
23783;DHT22;12071;50.850;4.446;2023-08-01T13:31:51;23.70;99.90
23783;DHT22;12071;50.850;4.446;2023-08-01T13:34:17;25.00;99.90
23783;DHT22;12071;50.850;4.446;2023-08-01T13:36:43;25.50;99.90
23783;DHT22;12071;50.850;4.446;2023-08-01T13:39:09;26.00;99.90
23783;DHT22;12071;50.850;4.446;2023-08-01T13:41:35;27.50;99.90
23783;DHT22;12071;50.850;4.446;2023-08-01T13:44:01;28.70;5.40
23783;DHT22;12071;50.850;4.446;2023-08-01T13:46:27;27.90;1.00
23783;DHT22;12071;50.850;4.446;2023-08-01T13:48:53;27.40;1.00
23783;DHT22;12071;50.850;4.446;2023-08-01T13:51:18;26.30;1.00
23783;DHT22;12071;50.850;4.446;2023-08-01T13:53:44;26.00;1.00
23783;DHT22;12071;50.850;4.446;2023-08-01T13:56:10;25.00;1.00
23783;DHT22;12071;50.850;4.446;2023-08-01T13:58:37;24.70;1.00
23783;DHT22;12071;50.850;4.446;2023-08-01T14:01:04;25.30;1.00
23783;DHT22;12071;50.850;4.446;2023-08-01T14:03:30;25.50;1.00
23783;DHT22;12071;50.850;4.446;2023-08-01T14:06:02;24.70;1.00
23783;DHT22;12071;50.850;4.446;2023-08-01T14:08:28;24.10;1.00
23783;DHT22;12071;50.850;4.446;2023-08-01T14:10:53;23.50;1.00
23783;DHT22;12071;50.850;4.446;2023-08-01T14:13:19;23.10;1.00
23783;DHT22;12071;50.850;4.446;2023-08-01T14:15:44;22.50;9.30
23783;DHT22;12071;50.850;4.446;2023-08-01T14:18:10;22.00;74.00
23783;DHT22;12071;50.850;4.446;2023-08-01T14:20:36;21.90;87.60
23783;DHT22;12071;50.850;4.446;2023-08-01T14:23:01;21.90;95.90
23783;DHT22;12071;50.850;4.446;2023-08-01T14:25:27;21.60;36.90
23783;DHT22;12071;50.850;4.446;2023-08-01T14:27:52;21.40;21.10
23783;DHT22;12071;50.850;4.446;2023-08-01T14:30:18;21.20;27.90
23783;DHT22;12071;50.850;4.446;2023-08-01T14:32:43;21.00;23.60
23783;DHT22;12071;50.850;4.446;2023-08-01T14:35:09;21.00;34.90
23783;DHT22;12071;50.850;4.446;2023-08-01T14:37:36;20.90;81.00
23783;DHT22;12071;50.850;4.446;2023-08-01T14:40:02;20.90;99.90
23783;DHT22;12071;50.850;4.446;2023-08-01T14:42:29;21.10;99.90
23783;DHT22;12071;50.850;4.446;2023-08-01T14:44:54;21.10;99.90
23783;DHT22;12071;50.850;4.446;2023-08-01T14:47:20;20.90;99.90
23783;DHT22;12071;50.850;4.446;2023-08-01T14:49:46;21.00;99.90
23783;DHT22;12071;50.850;4.446;2023-08-01T14:52:12;21.40;99.90
23783;DHT22;12071;50.850;4.446;2023-08-01T14:54:37;21.60;99.90
23783;DHT22;12071;50.850;4.446;2023-08-01T14:57:04;21.30;99.90
23783;DHT22;12071;50.850;4.446;2023-08-01T14:59:30;21.30;1.00
23783;DHT22;12071;50.850;4.446;2023-08-01T15:01:56;21.70;1.00
23783;DHT22;12071;50.850;4.446;2023-08-01T15:04:21;21.80;99.90
23783;DHT22;12071;50.850;4.446;2023-08-01T15:06:47;21.30;99.90
23783;DHT22;12071;50.850;4.446;2023-08-01T15:09:12;20.90;1.00
23783;DHT22;12071;50.850;4.446;2023-08-01T15:11:38;20.70;99.90
23783;DHT22;12071;50.850;4.446;2023-08-01T15:14:04;20.60;1.00
23783;DHT22;12071;50.850;4.446;2023-08-01T15:16:29;21.00;99.90
23783;DHT22;12071;50.850;4.446;2023-08-01T15:18:55;21.10;1.00
23783;DHT22;12071;50.850;4.446;2023-08-01T15:21:20;20.90;1.00
23783;DHT22;12071;50.850;4.446;2023-08-01T15:23:46;20.60;99.90
23783;DHT22;12071;50.850;4.446;2023-08-01T15:26:11;20.30;99.90
23783;DHT22;12071;50.850;4.446;2023-08-01T15:28:37;20.10;99.90
23783;DHT22;12071;50.850;4.446;2023-08-01T15:31:08;19.90;1.00
23783;DHT22;12071;50.850;4.446;2023-08-01T15:33:35;19.90;99.90
23783;DHT22;12071;50.850;4.446;2023-08-01T15:36:02;19.80;99.90
23783;DHT22;12071;50.850;4.446;2023-08-01T15:38:31;19.70;33.40
23783;DHT22;12071;50.850;4.446;2023-08-01T15:40:56;19.80;99.90
23783;DHT22;12071;50.850;4.446;2023-08-01T15:43:24;19.80;1.00